KAVL

Asheville Regional Airport

Airport
ICAO code
KAVL
IATA Code
AVL
Summary
ICAO Region
NAM
ICAO Territory
Location

Fletcher, North Carolina

Serving
Asheville
Elevation
2165 ft
Coordinates
35° 26' 14" N , 82° 32' 26" W
KCC
Metar
KAVL 270754Z AUTO 14006KT 10SM CLR 22/19 A2985 RMK AO2 SLP077 T02170189

Description

Asheville Regional Airport near the town of Fletcher, 9 nm south of the city of Asheville, in the U.S. state of North Carolina.

Airport map

Aerial View

SKYbrary Partners:

Safety knowledge contributed by: